Time;durP1;ratioP1;P1;durP2;ratioP2;P2;SDS_P1;SDS_P2;PMS_P1;PMS_P2;Temp;Humidity;BMP_temperature;BMP_pressure;BME280_temperature;BME280_humidity;BME280_pressure;Samples;Min_cycle;Max_cycle;Signal;HPM_P1;HPM_P2
2024/01/12 00:01:47;;;;;;;4.13;1.45;;;;;;;4.76;100.00;102807.00;6120591;23;20006;-94
2024/01/12 00:04:12;;;;;;;7.53;2.17;;;;;;;4.75;100.00;102806.13;6120882;23;20080;-94
2024/01/12 00:06:38;;;;;;;7.82;2.42;;;;;;;4.85;100.00;102789.13;6120512;23;20041;-94
2024/01/12 00:09:04;;;;;;;5.00;2.10;;;;;;;4.70;100.00;102795.88;6120654;23;20452;-93
2024/01/12 00:11:29;;;;;;;6.95;2.90;;;;;;;4.79;100.00;102796.78;6120193;23;19998;-94
2024/01/12 00:13:55;;;;;;;11.07;2.45;;;;;;;4.69;100.00;102788.22;6120305;23;20002;-95
2024/01/12 00:16:20;;;;;;;6.63;2.45;;;;;;;4.68;100.00;102792.47;6120339;23;20089;-94
2024/01/12 00:18:46;;;;;;;9.90;2.58;;;;;;;4.71;100.00;102784.81;6121044;23;20001;-95
2024/01/12 00:21:11;;;;;;;4.88;2.78;;;;;;;4.80;100.00;102785.69;6121548;23;20010;-95
2024/01/12 00:23:37;;;;;;;8.10;2.60;;;;;;;4.81;100.00;102788.25;6121673;23;20012;-93
2024/01/12 00:26:02;;;;;;;6.03;2.60;;;;;;;4.76;100.00;102789.94;6121612;23;20029;-94
2024/01/12 00:28:28;;;;;;;9.93;2.70;;;;;;;4.66;100.00;102794.16;6121420;23;20006;-94
2024/01/12 00:30:54;;;;;;;7.72;3.88;;;;;;;4.67;100.00;102790.75;6120444;23;20001;-91
2024/01/12 00:33:21;;;;;;;7.75;3.00;;;;;;;4.73;100.00;102784.84;6121700;23;20084;-93
2024/01/12 00:35:46;;;;;;;11.63;3.20;;;;;;;4.70;100.00;102777.97;6121814;23;20329;-93
2024/01/12 00:38:12;;;;;;;7.55;2.72;;;;;;;4.77;100.00;102780.56;6121962;23;20006;-94
2024/01/12 00:40:38;;;;;;;6.35;2.55;;;;;;;4.73;100.00;102782.28;6121270;23;20009;-94
2024/01/12 00:43:03;;;;;;;10.90;3.15;;;;;;;4.71;100.00;102771.19;6120510;23;20475;-93
2024/01/12 00:45:28;;;;;;;7.82;2.92;;;;;;;4.68;100.00;102776.25;6121974;23;20061;-93
2024/01/12 00:47:54;;;;;;;9.75;2.80;;;;;;;4.67;100.00;102785.63;6121657;23;20009;-94
2024/01/12 00:50:19;;;;;;;7.32;2.35;;;;;;;4.71;100.00;102782.25;6121686;23;20148;-95
2024/01/12 00:52:45;;;;;;;8.02;2.45;;;;;;;4.76;100.00;102789.09;6121480;23;20417;-94
2024/01/12 00:55:11;;;;;;;6.30;2.78;;;;;;;4.75;100.00;102787.38;6121275;23;20033;-94
2024/01/12 00:57:36;;;;;;;8.85;3.55;;;;;;;4.70;100.00;102780.53;6121254;23;20081;-93
2024/01/12 01:00:04;;;;;;;5.65;2.85;;;;;;;4.75;100.00;102772.88;6121859;23;20433;-95
2024/01/12 01:02:29;;;;;;;7.47;2.63;;;;;;;4.70;100.00;102789.91;6121762;23;20464;-95
2024/01/12 01:04:55;;;;;;;10.57;2.00;;;;;;;4.80;100.00;102778.88;6121387;23;20002;-95
2024/01/12 01:07:20;;;;;;;8.65;2.35;;;;;;;4.78;100.00;102779.69;6121513;23;20060;-92
2024/01/12 01:09:46;;;;;;;8.27;2.15;;;;;;;4.81;100.00;102782.31;6120914;23;20014;-93
2024/01/12 01:12:11;;;;;;;6.72;2.33;;;;;;;4.77;100.00;102770.34;6120927;23;20010;-94
2024/01/12 01:14:37;;;;;;;4.45;2.28;;;;;;;4.78;100.00;102780.59;6121322;23;20002;-95
2024/01/12 01:17:02;;;;;;;8.82;2.65;;;;;;;4.86;100.00;102772.94;6121833;23;20006;-94
2024/01/12 01:19:28;;;;;;;7.85;2.75;;;;;;;4.83;100.00;102785.69;6121323;23;20017;-93
2024/01/12 01:21:53;;;;;;;10.00;2.83;;;;;;;4.77;100.00;102775.44;6121286;23;20034;-95
2024/01/12 01:24:18;;;;;;;8.95;3.53;;;;;;;4.69;100.00;102775.41;6120636;23;20010;-95
2024/01/12 01:26:44;;;;;;;6.57;3.42;;;;;;;4.64;100.00;102777.09;6121379;23;20005;-92
2024/01/12 01:29:09;;;;;;;5.45;3.00;;;;;;;4.72;100.00;102768.59;6120655;23;20010;-94
2024/01/12 01:31:35;;;;;;;11.38;2.92;;;;;;;4.73;100.00;102772.03;6120528;23;20009;-93
2024/01/12 01:34:00;;;;;;;7.93;2.78;;;;;;;4.75;100.00;102779.69;6120432;23;20030;-94
2024/01/12 01:36:25;;;;;;;11.43;3.03;;;;;;;4.71;100.00;102772.03;6121063;23;20089;-95
2024/01/12 01:38:51;;;;;;;5.18;2.75;;;;;;;4.88;100.00;102768.69;6120230;23;20005;-93
2024/01/12 01:41:16;;;;;;;7.38;2.67;;;;;;;4.81;100.00;102759.28;6120324;23;20006;-94
2024/01/12 01:43:42;;;;;;;5.97;2.70;;;;;;;4.72;100.00;102758.38;6121887;23;20010;-93
2024/01/12 01:46:08;;;;;;;6.35;2.63;;;;;;;4.75;100.00;102761.78;6120258;23;20049;-94
2024/01/12 01:48:34;;;;;;;9.43;2.88;;;;;;;4.77;100.00;102760.09;6120621;23;20028;-94
2024/01/12 01:51:00;;;;;;;5.75;2.42;;;;;;;4.85;100.00;102760.97;6120318;23;20010;-94
2024/01/12 01:53:26;;;;;;;3.13;2.08;;;;;;;4.83;100.00;102760.09;6120434;23;20029;-94
2024/01/12 01:55:51;;;;;;;5.65;2.45;;;;;;;4.77;100.00;102752.44;6120334;22;20002;-93
2024/01/12 01:58:17;;;;;;;2.40;1.77;;;;;;;4.66;100.00;102757.50;6121071;23;20006;-93
2024/01/12 02:00:43;;;;;;;12.25;2.60;;;;;;;4.66;100.00;102753.25;6120510;23;20075;-95
2024/01/12 02:03:09;;;;;;;6.10;1.95;;;;;;;4.65;100.00;102751.50;6120688;23;20431;-95
2024/01/12 02:05:35;;;;;;;9.43;2.08;;;;;;;4.76;100.00;102748.16;6121045;23;20006;-94
2024/01/12 02:08:01;;;;;;;8.38;2.40;;;;;;;4.76;100.00;102749.03;6120765;23;20455;-93
2024/01/12 02:10:30;;;;;;;8.38;2.55;;;;;;;4.72;100.00;102750.69;6120198;23;20336;-95
2024/01/12 02:12:56;;;;;;;7.28;2.60;;;;;;;4.72;100.00;102750.69;6120685;23;20010;-91
2024/01/12 02:15:22;;;;;;;7.97;2.20;;;;;;;4.71;100.00;102751.56;6120632;23;20009;-95
2024/01/12 02:17:48;;;;;;;6.18;2.38;;;;;;;4.72;100.00;102748.13;6118694;23;20002;-93
2024/01/12 02:20:13;;;;;;;6.28;2.03;;;;;;;4.74;100.00;102744.75;6120071;23;20006;-95
2024/01/12 02:22:39;;;;;;;10.95;3.25;;;;;;;4.71;100.00;102743.88;6120470;23;20006;-94
2024/01/12 02:25:05;;;;;;;5.60;2.08;;;;;;;4.75;100.00;102751.56;6122080;23;20017;-94
2024/01/12 02:27:30;;;;;;;11.88;3.80;;;;;;;4.76;100.00;102746.47;6120080;23;20029;-95
2024/01/12 02:29:57;;;;;;;7.43;2.40;;;;;;;4.76;100.00;102755.84;6119952;23;20009;-95
2024/01/12 02:32:22;;;;;;;8.52;2.40;;;;;;;4.71;100.00;102743.03;6120321;23;20006;-95
2024/01/12 02:34:49;;;;;;;8.05;2.88;;;;;;;4.66;100.00;102750.69;6120693;23;20033;-94
2024/01/12 02:37:14;;;;;;;8.85;3.20;;;;;;;4.64;100.00;102747.25;6121175;23;20092;-94
2024/01/12 02:39:40;;;;;;;9.75;3.33;;;;;;;4.71;100.00;102743.88;6121295;23;20440;-94
2024/01/12 02:42:05;;;;;;;16.27;3.60;;;;;;;4.84;100.00;102741.38;6121486;23;20320;-94
2024/01/12 02:44:30;;;;;;;11.43;2.60;;;;;;;4.81;100.00;102741.38;6121082;23;20014;-95
2024/01/12 02:46:56;;;;;;;6.75;3.22;;;;;;;4.78;100.00;102738.78;6120707;23;20002;-95
2024/01/12 02:49:21;;;;;;;5.53;2.67;;;;;;;4.76;100.00;102732.81;6121688;23;20167;-95
2024/01/12 02:51:48;;;;;;;6.22;2.70;;;;;;;4.81;100.00;102743.94;6122948;23;19998;-94
2024/01/12 02:54:13;;;;;;;13.32;4.15;;;;;;;4.74;100.00;102739.63;6121204;23;20089;-93
2024/01/12 02:56:38;;;;;;;8.27;2.75;;;;;;;4.66;100.00;102737.91;6121408;23;20038;-94
2024/01/12 02:59:04;;;;;;;6.03;2.97;;;;;;;4.85;100.00;102743.06;6122711;23;20455;-93
2024/01/12 03:01:29;;;;;;;11.82;3.30;;;;;;;4.79;100.00;102732.81;6119691;23;20010;-93
2024/01/12 03:03:54;;;;;;;7.93;2.97;;;;;;;4.70;100.00;102734.47;6120755;23;20059;-95
2024/01/12 03:06:20;;;;;;;3.90;2.38;;;;;;;4.69;100.00;102732.78;6120612;23;20157;-92
2024/01/12 03:08:46;;;;;;;6.70;3.33;;;;;;;4.82;100.00;102737.94;6122318;23;20001;-95
2024/01/12 03:11:11;;;;;;;7.97;2.83;;;;;;;4.90;100.00;102736.25;6120975;23;20017;-95
2024/01/12 03:13:37;;;;;;;8.15;2.47;;;;;;;4.79;100.00;102732.81;6121078;23;20006;-91
2024/01/12 03:16:06;;;;;;;8.15;3.30;;;;;;;4.78;100.00;102726.84;6119531;23;20399;-91
2024/01/12 03:18:32;;;;;;;5.65;2.83;;;;;;;4.80;100.00;102737.06;6120973;23;20013;-94
2024/01/12 03:20:58;;;;;;;7.68;2.70;;;;;;;4.79;100.00;102732.81;6119597;23;20010;-90
2024/01/12 03:23:23;;;;;;;12.45;3.92;;;;;;;4.72;100.00;102734.50;6119763;23;20002;-93
2024/01/12 03:25:49;;;;;;;6.15;2.78;;;;;;;4.74;100.00;102729.41;6121281;23;20083;-92
2024/01/12 03:28:14;;;;;;;11.00;2.78;;;;;;;4.77;100.00;102729.41;6121333;23;20036;-91
2024/01/12 03:30:40;;;;;;;8.75;2.90;;;;;;;4.85;100.00;102725.16;6119728;23;20005;-92
2024/01/12 03:33:08;;;;;;;8.18;3.00;;;;;;;4.73;100.00;102728.56;6121138;23;20337;-94
2024/01/12 03:35:35;;;;;;;10.45;3.00;;;;;;;4.72;100.00;102721.72;6121469;23;20009;-93
2024/01/12 03:38:00;;;;;;;14.13;2.85;;;;;;;4.64;100.00;102723.41;6120688;23;20049;-92
2024/01/12 03:40:25;;;;;;;9.07;3.22;;;;;;;4.70;100.00;102719.13;6120500;23;20013;-93
2024/01/12 03:42:51;;;;;;;9.73;2.75;;;;;;;4.71;100.00;102718.31;6120830;23;20002;-93
2024/01/12 03:45:16;;;;;;;5.45;2.22;;;;;;;4.76;100.00;102722.59;6120706;23;20010;-93
2024/01/12 03:47:41;;;;;;;9.93;3.53;;;;;;;4.77;100.00;102717.47;6121141;23;20006;-92
2024/01/12 03:50:09;;;;;;;9.75;2.65;;;;;;;4.71;100.00;102718.31;6120894;23;20037;-92
2024/01/12 03:52:34;;;;;;;9.50;2.22;;;;;;;4.78;100.00;102716.63;6120910;23;20455;-91
2024/01/12 03:55:00;;;;;;;6.53;2.20;;;;;;;4.79;100.00;102712.34;6121103;23;20026;-93
2024/01/12 03:57:25;;;;;;;12.15;2.63;;;;;;;4.78;100.00;102710.63;6121414;23;20428;-92
2024/01/12 03:59:50;;;;;;;6.22;2.13;;;;;;;4.77;100.00;102703.81;6120773;23;20006;-91
2024/01/12 04:02:16;;;;;;;8.07;2.90;;;;;;;4.71;100.00;102710.63;6121018;23;20494;-93
2024/01/12 04:04:42;;;;;;;6.30;2.28;;;;;;;4.80;100.00;102709.78;6121430;23;20030;-92
2024/01/12 04:07:07;;;;;;;9.68;3.00;;;;;;;4.78;100.00;102696.16;6121090;23;20523;-92
2024/01/12 04:09:32;;;;;;;7.57;3.08;;;;;;;4.77;100.00;102696.16;6120898;23;20006;-91
2024/01/12 04:11:58;;;;;;;6.68;3.42;;;;;;;4.80;100.00;102696.16;6121099;23;20456;-92
2024/01/12 04:14:24;;;;;;;11.20;3.03;;;;;;;4.83;100.00;102698.69;6120823;23;20002;-92
2024/01/12 04:16:49;;;;;;;13.80;3.28;;;;;;;4.74;100.00;102699.53;6119202;23;20013;-93
2024/01/12 04:19:15;;;;;;;8.18;3.15;;;;;;;4.77;100.00;102693.59;6120857;23;20033;-92
2024/01/12 04:21:40;;;;;;;15.88;3.70;;;;;;;4.68;100.00;102689.28;6119377;23;20010;-92
2024/01/12 04:24:07;;;;;;;16.95;3.47;;;;;;;4.72;100.00;102693.56;6121724;23;20022;-91
2024/01/12 04:26:32;;;;;;;9.27;3.33;;;;;;;4.75;100.00;102695.28;6121161;23;20072;-94
2024/01/12 04:28:57;;;;;;;8.35;3.28;;;;;;;4.68;100.00;102691.84;6120112;23;20085;-94
2024/01/12 04:31:23;;;;;;;12.00;3.95;;;;;;;4.67;100.00;102696.09;6120824;23;20013;-93
2024/01/12 04:33:48;;;;;;;7.15;3.22;;;;;;;4.78;100.00;102690.16;6120045;23;19998;-94
2024/01/12 04:36:13;;;;;;;11.77;3.92;;;;;;;4.70;100.00;102685.88;6119900;23;20006;-90
2024/01/12 04:38:39;;;;;;;10.45;4.32;;;;;;;4.76;100.00;102690.19;6120258;23;20006;-91
2024/01/12 04:41:04;;;;;;;10.35;3.72;;;;;;;4.70;100.00;102685.88;6120092;23;20056;-90
2024/01/12 04:43:30;;;;;;;13.13;3.85;;;;;;;4.71;100.00;102679.94;6117969;23;20010;-90
2024/01/12 04:45:55;;;;;;;9.40;3.08;;;;;;;4.76;100.00;102682.50;6119893;23;19998;-91
2024/01/12 04:48:20;;;;;;;15.25;3.95;;;;;;;4.61;100.00;102682.44;6120490;23;20002;-91
2024/01/12 04:50:46;;;;;;;10.07;3.60;;;;;;;4.77;100.00;102684.19;6120496;23;19994;-91
2024/01/12 04:53:11;;;;;;;13.50;3.95;;;;;;;4.71;100.00;102684.19;6119869;23;20006;-91
2024/01/12 04:55:36;;;;;;;12.55;3.85;;;;;;;4.63;100.00;102679.06;6119214;23;20009;-90
2024/01/12 04:58:03;;;;;;;10.80;4.85;;;;;;;4.75;100.00;102674.81;6118348;23;20029;-90
2024/01/12 05:00:30;;;;;;;10.77;3.53;;;;;;;4.72;100.00;102681.63;6117808;23;20006;-90
2024/01/12 05:02:55;;;;;;;7.38;3.35;;;;;;;4.72;100.00;102668.84;6119999;23;20051;-90
2024/01/12 05:05:20;;;;;;;9.10;3.97;;;;;;;4.63;100.00;102671.38;6118436;23;20042;-90
2024/01/12 05:07:46;;;;;;;13.25;4.53;;;;;;;4.71;100.00;102663.72;6121329;23;20456;-90
2024/01/12 05:10:12;;;;;;;13.23;4.40;;;;;;;4.70;100.00;102675.66;6119529;23;20044;-91
2024/01/12 05:12:37;;;;;;;14.68;4.45;;;;;;;4.72;100.00;102673.94;6121205;23;20002;-91
2024/01/12 05:15:03;;;;;;;9.38;4.20;;;;;;;4.59;100.00;102668.81;6120654;23;20009;-90
2024/01/12 05:17:28;;;;;;;16.80;4.25;;;;;;;4.62;100.00;102668.81;6119744;23;20033;-90
2024/01/12 05:19:53;;;;;;;16.67;5.35;;;;;;;4.72;100.00;102666.28;6120934;23;20006;-90
2024/01/12 05:22:19;;;;;;;12.05;3.92;;;;;;;4.82;100.00;102666.31;6121398;23;20445;-90
2024/01/12 05:24:44;;;;;;;10.75;4.45;;;;;;;4.85;100.00;102667.19;6119444;23;20417;-90
2024/01/12 05:27:10;;;;;;;9.63;3.50;;;;;;;4.80;100.00;102662.88;6121103;23;20025;-90
2024/01/12 05:29:35;;;;;;;11.23;3.45;;;;;;;4.75;100.00;102664.56;6120730;23;20038;-91
2024/01/12 05:32:01;;;;;;;12.48;3.70;;;;;;;4.74;100.00;102657.78;6121068;23;20012;-90
2024/01/12 05:34:27;;;;;;;12.07;4.20;;;;;;;4.68;100.00;102669.69;6121246;23;20010;-90
2024/01/12 05:36:52;;;;;;;13.10;3.92;;;;;;;4.69;100.00;102660.31;6120801;23;20002;-91
2024/01/12 05:39:18;;;;;;;14.65;3.15;;;;;;;4.56;100.00;102653.44;6120991;23;20012;-90
2024/01/12 05:41:43;;;;;;;11.85;2.85;;;;;;;4.60;100.00;102656.00;6121195;23;20375;-91
2024/01/12 05:44:08;;;;;;;16.65;2.83;;;;;;;4.62;100.00;102664.53;6120627;23;20006;-91
2024/01/12 05:46:34;;;;;;;13.00;3.22;;;;;;;4.63;100.00;102656.03;6121094;23;20429;-91
2024/01/12 05:49:03;;;;;;;11.40;2.55;;;;;;;4.55;100.00;102649.19;6121277;23;20060;-91
2024/01/12 05:51:29;;;;;;;7.30;2.60;;;;;;;4.60;100.00;102650.91;6119760;23;20002;-91
2024/01/12 05:53:54;;;;;;;11.48;2.78;;;;;;;4.55;100.00;102637.25;6121220;23;20024;-90
2024/01/12 05:56:19;;;;;;;11.43;2.95;;;;;;;4.50;100.00;102638.94;6119450;23;20029;-91
2024/01/12 05:58:45;;;;;;;14.32;3.10;;;;;;;4.55;100.00;102649.19;6119090;23;19998;-90
2024/01/12 06:01:10;;;;;;;9.23;2.25;;;;;;;4.54;100.00;102635.53;6119501;23;20017;-91
2024/01/12 06:03:35;;;;;;;14.88;3.05;;;;;;;4.56;100.00;102638.97;6121188;23;20009;-90
2024/01/12 06:06:01;;;;;;;14.18;4.28;;;;;;;4.61;100.00;102634.72;6119438;23;20063;-90
2024/01/12 06:08:26;;;;;;;7.93;2.25;;;;;;;4.67;100.00;102637.28;6120811;23;20077;-90
2024/01/12 06:10:52;;;;;;;8.27;2.20;;;;;;;4.60;100.00;102643.22;6121322;23;20385;-91
2024/01/12 06:13:17;;;;;;;12.25;3.03;;;;;;;4.57;100.00;102645.78;6120760;23;20002;-91
2024/01/12 06:15:43;;;;;;;10.98;2.75;;;;;;;4.52;100.00;102641.50;6118902;23;20017;-91
2024/01/12 06:18:08;;;;;;;10.10;2.28;;;;;;;4.51;100.00;102655.97;6119073;23;20006;-92
2024/01/12 06:20:34;;;;;;;14.77;2.78;;;;;;;4.48;100.00;102649.16;6119141;23;20013;-91
2024/01/12 06:22:59;;;;;;;8.55;2.70;;;;;;;4.40;100.00;102648.28;6120934;23;20010;-92
2024/01/12 06:25:24;;;;;;;13.45;3.15;;;;;;;4.44;100.00;102654.28;6121036;23;20317;-92
2024/01/12 06:27:50;;;;;;;11.63;2.50;;;;;;;4.44;100.00;102652.56;6119021;23;20085;-92
2024/01/12 06:30:16;;;;;;;11.65;2.20;;;;;;;4.47;100.00;102651.72;6120734;23;20030;-91
2024/01/12 06:32:43;;;;;;;10.70;1.98;;;;;;;4.48;100.00;102653.41;6121294;23;19994;-91
2024/01/12 06:35:10;;;;;;;10.15;2.20;;;;;;;4.51;100.00;102648.31;6120983;23;20098;-91
2024/01/12 06:37:36;;;;;;;10.63;1.88;;;;;;;4.53;100.00;102654.28;6121326;23;20002;-92
2024/01/12 06:40:01;;;;;;;13.55;3.13;;;;;;;4.49;100.00;102655.13;6119491;23;20437;-92
2024/01/12 06:42:28;;;;;;;9.77;2.83;;;;;;;4.52;100.00;102657.69;6118996;23;20060;-93
2024/01/12 06:44:54;;;;;;;11.27;2.30;;;;;;;4.60;100.00;102656.00;6118949;23;20068;-89
2024/01/12 06:47:19;;;;;;;8.27;1.85;;;;;;;4.50;100.00;102649.16;6121074;23;20421;-91
2024/01/12 06:49:45;;;;;;;13.55;2.08;;;;;;;4.47;100.00;102654.28;6120885;23;20017;-91
2024/01/12 06:52:11;;;;;;;13.80;3.25;;;;;;;4.48;100.00;102659.38;6120737;23;20002;-91
2024/01/12 06:54:37;;;;;;;12.75;2.22;;;;;;;4.35;100.00;102655.06;6120812;23;19998;-92
2024/01/12 06:57:03;;;;;;;8.02;2.13;;;;;;;4.43;100.00;102655.94;6120645;23;20005;-92
2024/01/12 06:59:28;;;;;;;9.23;2.05;;;;;;;4.44;100.00;102659.38;6121434;23;20010;-90
2024/01/12 07:01:53;;;;;;;13.40;1.45;;;;;;;4.39;100.00;102658.50;6121880;23;20009;-93
2024/01/12 07:04:19;;;;;;;11.82;2.45;;;;;;;4.35;100.00;102661.91;6120975;23;20059;-93
2024/01/12 07:06:45;;;;;;;12.20;1.63;;;;;;;4.50;100.00;102661.94;6119321;23;20006;-93
2024/01/12 07:09:12;;;;;;;7.15;1.42;;;;;;;4.48;100.00;102666.19;6119994;23;20093;-93
2024/01/12 07:11:44;;;;;;;14.50;2.05;;;;;;;4.46;100.00;102667.88;6119782;23;19998;-94
2024/01/12 07:14:10;;;;;;;13.82;3.47;;;;;;;4.52;100.00;102673.03;6119022;23;20033;-93
2024/01/12 07:16:39;;;;;;;9.50;1.75;;;;;;;4.45;100.00;102664.47;6119559;23;19998;-95
2024/01/12 07:19:04;;;;;;;9.30;2.20;;;;;;;4.44;100.00;102667.06;6119512;23;20112;-93
2024/01/12 07:21:30;;;;;;;10.13;1.98;;;;;;;4.49;100.00;102662.81;6120883;23;20436;-91
2024/01/12 07:23:55;;;;;;;12.43;2.85;;;;;;;4.47;100.00;102664.50;6121194;23;20005;-93
2024/01/12 07:26:21;;;;;;;9.85;1.63;;;;;;;4.59;100.00;102663.69;6119041;23;20055;-93
2024/01/12 07:28:46;;;;;;;13.68;2.30;;;;;;;4.43;100.00;102673.00;6118313;23;20002;-92
2024/01/12 07:31:12;;;;;;;6.70;1.40;;;;;;;4.45;100.00;102663.63;6119033;23;20014;-94
2024/01/12 07:33:37;;;;;;;13.75;2.67;;;;;;;4.20;100.00;102668.66;6119216;23;20013;-93
2024/01/12 07:36:03;;;;;;;10.10;1.83;;;;;;;4.22;100.00;102661.84;6119593;23;20006;-93
2024/01/12 07:38:29;;;;;;;10.05;1.67;;;;;;;4.30;100.00;102667.00;6119204;23;20367;-94
2024/01/12 07:40:54;;;;;;;10.25;2.10;;;;;;;4.35;100.00;102674.69;6119446;23;20006;-92
2024/01/12 07:43:19;;;;;;;12.00;2.00;;;;;;;4.14;100.00;102671.16;6118620;23;20425;-91
2024/01/12 07:45:45;;;;;;;14.60;2.22;;;;;;;4.30;100.00;102674.66;6120374;23;19998;-91
2024/01/12 07:48:10;;;;;;;8.20;1.35;;;;;;;4.15;100.00;102657.56;6120040;23;20002;-91
2024/01/12 07:50:36;;;;;;;13.90;2.10;;;;;;;4.36;100.00;102666.16;6120211;23;20021;-93
2024/01/12 07:53:01;;;;;;;16.65;2.08;;;;;;;4.40;100.00;102673.84;6121148;23;19994;-92
2024/01/12 07:55:30;;;;;;;10.23;1.80;;;;;;;4.33;100.00;102676.38;6129696;23;19986;-96
2024/01/12 07:57:58;;;;;;;13.00;2.10;;;;;;;4.21;100.00;102657.56;6114566;22;20011;-96
2024/01/12 08:00:32;;;;;;;9.45;1.58;;;;;;;4.30;100.00;102661.88;6131805;22;20010;-96
2024/01/12 08:02:59;;;;;;;9.55;1.10;;;;;;;4.34;100.00;102661.06;6098073;23;20007;-96
2024/01/12 08:05:24;;;;;;;9.02;1.35;;;;;;;4.29;100.00;102660.16;6098035;23;20007;-96
2024/01/12 08:08:11;;;;;;;;;;;;;;;;;;;;;
2024/01/12 08:10:40;;;;;;;12.27;1.85;;;;;;;4.25;100.00;102669.53;6138400;23;20021;-96
2024/01/12 08:13:32;;;;;;;15.07;2.22;;;;;;;4.33;100.00;102661.03;6142303;23;20010;-96
2024/01/12 08:15:58;;;;;;;5.65;1.27;;;;;;;4.42;100.00;102666.19;6122755;23;20033;-94
2024/01/12 08:18:23;;;;;;;10.02;1.65;;;;;;;4.45;100.00;102673.88;6127214;23;20006;-96
2024/01/12 08:20:48;;;;;;;10.68;1.65;;;;;;;4.36;100.00;102663.59;6118652;23;20006;-92
2024/01/12 08:23:21;;;;;;;15.23;2.03;;;;;;;4.18;100.00;102657.56;6128324;23;20389;-96
2024/01/12 08:25:49;;;;;;;14.13;2.50;;;;;;;4.32;100.00;102659.31;6137248;23;20025;-96
2024/01/12 08:28:15;;;;;;;13.18;1.92;;;;;;;4.25;100.00;102654.19;6121271;23;20113;-95
2024/01/12 08:30:40;;;;;;;8.35;1.40;;;;;;;4.22;100.00;102649.06;6131257;23;20006;-93
2024/01/12 08:33:06;;;;;;;9.20;1.48;;;;;;;4.37;100.00;102652.53;6127079;23;20010;-95
2024/01/12 08:35:37;;;;;;;10.48;1.73;;;;;;;4.27;100.00;102657.59;6128515;23;20002;-95
2024/01/12 08:38:03;;;;;;;12.80;2.30;;;;;;;4.41;100.00;102655.09;6127825;23;20457;-96
2024/01/12 08:40:35;;;;;;;9.90;1.67;;;;;;;4.30;100.00;102656.75;6129035;23;20049;-96
2024/01/12 08:43:01;;;;;;;12.60;1.95;;;;;;;4.25;100.00;102650.78;6136206;23;20017;-95
2024/01/12 08:45:27;;;;;;;13.57;2.25;;;;;;;4.18;100.00;102662.66;6136639;23;20006;-95
2024/01/12 08:47:58;;;;;;;12.65;2.05;;;;;;;4.21;100.00;102647.34;6136890;23;20002;-95
2024/01/12 08:50:31;;;;;;;12.57;1.70;;;;;;;4.09;100.00;102647.28;6127878;23;20012;-94
2024/01/12 08:52:56;;;;;;;13.52;2.08;;;;;;;4.24;100.00;102646.50;6127523;23;20429;-94
2024/01/12 08:55:22;;;;;;;14.98;1.88;;;;;;;4.21;100.00;102647.34;6124717;22;20009;-95
2024/01/12 08:57:48;;;;;;;9.25;2.70;;;;;;;4.33;100.00;102640.59;6124762;23;20026;-95
2024/01/12 09:00:14;;;;;;;4.65;1.40;;;;;;;4.38;100.00;102642.28;6128172;23;19990;-94
2024/01/12 09:07:47;;;;;;;10.73;1.67;;;;;;;4.46;100.00;102643.19;6110618;23;20022;-95
2024/01/12 09:15:20;;;;;;;13.75;2.45;;;;;;;4.23;100.00;102637.13;6116280;22;20021;-94
2024/01/12 09:17:45;;;;;;;9.18;1.65;;;;;;;4.28;100.00;102643.97;6132469;23;20077;-95
2024/01/12 09:20:11;;;;;;;16.05;2.58;;;;;;;4.40;100.00;102649.97;6123396;23;20028;-94
2024/01/12 09:22:36;;;;;;;15.43;1.80;;;;;;;4.28;100.00;102641.41;6129397;23;20377;-94
2024/01/12 09:25:02;;;;;;;11.93;2.00;;;;;;;4.42;100.00;102646.59;6121392;23;20424;-94
2024/01/12 09:27:28;;;;;;;17.70;2.30;;;;;;;4.41;100.00;102639.75;6124321;23;20002;-96
2024/01/12 09:29:53;;;;;;;9.70;1.70;;;;;;;4.36;100.00;102643.16;6131007;23;20006;-95
2024/01/12 09:32:19;;;;;;;12.95;2.03;;;;;;;4.48;100.00;102648.31;6125550;23;20002;-95
2024/01/12 09:34:45;;;;;;;6.05;1.35;;;;;;;4.47;100.00;102649.16;6122508;23;20010;-96
2024/01/12 09:37:10;;;;;;;8.98;1.52;;;;;;;4.57;100.00;102656.00;6120919;23;20073;-95
2024/01/12 09:39:36;;;;;;;10.73;1.50;;;;;;;4.59;100.00;102659.44;6118564;23;20010;-94
2024/01/12 09:42:02;;;;;;;5.35;0.93;;;;;;;4.66;100.00;102656.03;6121108;23;20039;-96
2024/01/12 09:44:28;;;;;;;8.02;1.40;;;;;;;4.71;100.00;102667.13;6118900;23;20096;-93
2024/01/12 09:46:56;;;;;;;6.05;1.50;;;;;;;4.55;100.00;102657.69;6120088;23;20009;-94
2024/01/12 09:49:23;;;;;;;9.77;1.13;;;;;;;4.71;100.00;102659.47;6120699;23;20101;-95
2024/01/12 09:51:49;;;;;;;8.85;2.03;;;;;;;4.76;100.00;102663.75;6119399;23;20388;-94
2024/01/12 09:54:14;;;;;;;10.23;1.70;;;;;;;4.68;100.00;102658.59;6120959;23;20006;-95
2024/01/12 09:56:42;;;;;;;22.20;2.17;;;;;;;4.70;100.00;102657.75;6121722;23;20479;-94
2024/01/12 09:59:07;;;;;;;5.10;1.50;;;;;;;4.79;100.00;102656.06;6120985;23;20029;-94
2024/01/12 10:01:33;;;;;;;10.23;2.13;;;;;;;4.68;100.00;102662.03;6121188;23;20429;-95
2024/01/12 10:03:58;;;;;;;10.52;1.88;;;;;;;4.73;100.00;102662.03;6120546;23;20425;-95
2024/01/12 10:06:25;;;;;;;5.03;1.35;;;;;;;4.78;100.00;102664.56;6120971;23;20679;-95
2024/01/12 10:08:50;;;;;;;10.90;3.22;;;;;;;4.72;100.00;102666.28;6122833;23;20006;-95
2024/01/12 10:11:16;;;;;;;6.88;1.40;;;;;;;4.78;100.00;102664.56;6121990;23;20016;-95
2024/01/12 10:13:41;;;;;;;5.20;1.30;;;;;;;4.76;100.00;102661.19;6120911;23;20397;-94
2024/01/12 10:16:09;;;;;;;6.18;1.13;;;;;;;4.59;100.00;102664.53;6120306;23;20333;-95
2024/01/12 10:18:35;;;;;;;5.47;1.30;;;;;;;4.80;100.00;102678.22;6121099;23;20006;-95
2024/01/12 10:21:00;;;;;;;6.95;1.20;;;;;;;4.90;100.00;102674.84;6122077;23;20093;-95
2024/01/12 10:23:26;;;;;;;4.00;0.95;;;;;;;4.45;100.00;102667.03;6121707;23;20006;-95
2024/01/12 10:25:59;;;;;;;8.25;1.83;;;;;;;4.44;100.00;102692.63;6121240;23;20010;-94
2024/01/12 10:28:32;;;;;;;4.43;0.80;;;;;;;4.39;100.00;102686.59;6120976;23;20006;-95
2024/01/12 10:30:57;;;;;;;7.10;1.48;;;;;;;4.62;100.00;102694.38;6121610;23;20440;-93
2024/01/12 10:33:23;;;;;;;5.25;1.00;;;;;;;4.59;100.00;102686.72;6121996;22;20010;-94
2024/01/12 10:36:10;;;;;;;7.65;1.65;;;;;;;4.48;100.00;102694.31;6120544;23;20483;-96
2024/01/12 10:38:38;;;;;;;9.75;1.45;;;;;;;4.38;100.00;102690.03;6120669;23;20014;-94
2024/01/12 10:41:05;;;;;;;7.03;1.75;;;;;;;4.43;100.00;102689.19;6120834;23;20456;-96
2024/01/12 10:43:36;;;;;;;8.90;1.10;;;;;;;4.63;100.00;102686.72;6123673;23;20002;-96
2024/01/12 10:46:14;;;;;;;9.90;1.38;;;;;;;4.59;100.00;102677.34;6122013;23;20376;-96
2024/01/12 10:49:01;;;;;;;8.93;1.48;;;;;;;4.69;100.00;102679.06;6121350;23;20013;-95
2024/01/12 10:51:30;;;;;;;8.35;1.40;;;;;;;4.57;100.00;102666.25;6120549;23;20006;-96
2024/01/12 10:54:04;;;;;;;7.80;1.50;;;;;;;4.55;100.00;102667.09;6120884;23;20097;-95
2024/01/12 10:56:32;;;;;;;3.25;1.30;;;;;;;4.71;100.00;102669.69;6120513;23;20045;-96
2024/01/12 10:58:58;;;;;;;7.35;1.10;;;;;;;4.86;100.00;102657.78;6120598;23;20037;-95
2024/01/12 11:01:24;;;;;;;5.82;0.98;;;;;;;4.80;100.00;102657.78;6120161;23;20014;-96
2024/01/12 11:03:50;;;;;;;7.28;1.27;;;;;;;4.70;100.00;102662.84;6120615;23;20050;-96
2024/01/12 11:06:17;;;;;;;8.95;1.83;;;;;;;4.74;100.00;102660.31;6120763;23;20014;-96
2024/01/12 11:08:46;;;;;;;8.27;1.63;;;;;;;4.75;100.00;102654.34;6121476;23;20010;-95
2024/01/12 11:11:17;;;;;;;8.00;1.63;;;;;;;4.85;100.00;102656.94;6120550;23;20089;-95
2024/01/12 11:13:43;;;;;;;4.13;1.70;;;;;;;4.92;100.00;102647.56;6121469;23;20513;-96
2024/01/12 11:16:09;;;;;;;9.10;3.45;;;;;;;4.98;100.00;102652.69;6120743;23;20006;-96
2024/01/12 11:18:36;;;;;;;8.57;3.08;;;;;;;5.06;100.00;102656.09;6120874;23;20075;-95
2024/01/12 11:21:03;;;;;;;6.25;1.50;;;;;;;4.93;100.00;102649.28;6120732;23;20093;-96
2024/01/12 11:23:29;;;;;;;8.13;2.67;;;;;;;4.94;100.00;102640.75;6125301;23;20006;-94
2024/01/12 11:25:55;;;;;;;5.28;1.85;;;;;;;5.14;100.00;102646.75;6121611;23;20055;-95
2024/01/12 11:28:20;;;;;;;4.40;1.60;;;;;;;5.13;100.00;102645.03;6121190;23;20455;-96
2024/01/12 11:30:50;;;;;;;6.60;1.40;;;;;;;4.96;100.00;102649.28;6121257;23;20006;-95